sensor_id;sensor_type;location;lat;lon;timestamp;pressure;altitude;pressure_sealevel;temperature;humidity
13367;BME280;6752;52.612;13.630;2023-02-23T00:03:41;100787.88;;;4.15;100.00
13367;BME280;6752;52.612;13.630;2023-02-23T00:08:43;100778.33;;;4.00;100.00
13367;BME280;6752;52.612;13.630;2023-02-23T00:13:47;100773.55;;;3.95;100.00
13367;BME280;6752;52.612;13.630;2023-02-23T00:18:55;100776.42;;;3.93;100.00
13367;BME280;6752;52.612;13.630;2023-02-23T00:24:06;100777.64;;;3.87;100.00
13367;BME280;6752;52.612;13.630;2023-02-23T00:29:09;100774.95;;;3.87;100.00
13367;BME280;6752;52.612;13.630;2023-02-23T00:34:10;100771.85;;;3.82;100.00
13367;BME280;6752;52.612;13.630;2023-02-23T00:39:12;100762.77;;;3.79;100.00
13367;BME280;6752;52.612;13.630;2023-02-23T00:44:20;100765.80;;;3.80;100.00
13367;BME280;6752;52.612;13.630;2023-02-23T00:49:22;100764.34;;;3.85;100.00
13367;BME280;6752;52.612;13.630;2023-02-23T00:54:24;100781.20;;;3.83;100.00
13367;BME280;6752;52.612;13.630;2023-02-23T00:59:27;100773.30;;;3.74;100.00
13367;BME280;6752;52.612;13.630;2023-02-23T01:04:29;100773.78;;;3.77;100.00
13367;BME280;6752;52.612;13.630;2023-02-23T01:09:32;100780.94;;;3.77;100.00
13367;BME280;6752;52.612;13.630;2023-02-23T01:14:34;100770.23;;;3.61;100.00
13367;BME280;6752;52.612;13.630;2023-02-23T01:19:36;100764.83;;;3.65;100.00
13367;BME280;6752;52.612;13.630;2023-02-23T01:24:38;100759.14;;;3.56;100.00
13367;BME280;6752;52.612;13.630;2023-02-23T01:29:41;100754.99;;;3.61;100.00
13367;BME280;6752;52.612;13.630;2023-02-23T01:34:43;100746.92;;;3.57;100.00
13367;BME280;6752;52.612;13.630;2023-02-23T01:39:46;100751.90;;;3.57;100.00
13367;BME280;6752;52.612;13.630;2023-02-23T01:49:54;100743.41;;;3.44;100.00
13367;BME280;6752;52.612;13.630;2023-02-23T01:54:56;100738.81;;;3.37;100.00
13367;BME280;6752;52.612;13.630;2023-02-23T01:59:59;100737.45;;;3.41;100.00
13367;BME280;6752;52.612;13.630;2023-02-23T02:05:02;100729.95;;;3.40;100.00
13367;BME280;6752;52.612;13.630;2023-02-23T02:10:04;100717.86;;;3.28;100.00
13367;BME280;6752;52.612;13.630;2023-02-23T02:15:12;100721.91;;;3.32;100.00
13367;BME280;6752;52.612;13.630;2023-02-23T02:30:58;100698.59;;;3.23;100.00
13367;BME280;6752;52.612;13.630;2023-02-23T02:41:45;100703.17;;;3.15;100.00
13367;BME280;6752;52.612;13.630;2023-02-23T02:46:48;100693.66;;;3.16;100.00
13367;BME280;6752;52.612;13.630;2023-02-23T02:51:54;100690.80;;;3.17;100.00
13367;BME280;6752;52.612;13.630;2023-02-23T02:56:55;100677.94;;;3.12;100.00
13367;BME280;6752;52.612;13.630;2023-02-23T03:01:57;100680.45;;;3.06;100.00
13367;BME280;6752;52.612;13.630;2023-02-23T03:07:22;100685.66;;;3.15;100.00
13367;BME280;6752;52.612;13.630;2023-02-23T03:13:05;100674.14;;;3.05;100.00
13367;BME280;6752;52.612;13.630;2023-02-23T03:24:47;100662.11;;;3.13;100.00
13367;BME280;6752;52.612;13.630;2023-02-23T03:34:54;100670.36;;;3.03;100.00
13367;BME280;6752;52.612;13.630;2023-02-23T03:40:24;100666.83;;;3.03;100.00
13367;BME280;6752;52.612;13.630;2023-02-23T03:45:43;100666.70;;;2.92;100.00
13367;BME280;6752;52.612;13.630;2023-02-23T03:51:04;100664.57;;;2.99;100.00
13367;BME280;6752;52.612;13.630;2023-02-23T03:56:23;100664.36;;;2.89;100.00
13367;BME280;6752;52.612;13.630;2023-02-23T04:01:44;100659.53;;;2.96;100.00
13367;BME280;6752;52.612;13.630;2023-02-23T04:07:04;100659.98;;;2.88;100.00
13367;BME280;6752;52.612;13.630;2023-02-23T04:17:51;100657.64;;;2.73;100.00
13367;BME280;6752;52.612;13.630;2023-02-23T04:22:53;100654.36;;;2.74;100.00
13367;BME280;6752;52.612;13.630;2023-02-23T04:27:56;100645.45;;;2.69;100.00
13367;BME280;6752;52.612;13.630;2023-02-23T04:32:58;100644.55;;;2.49;100.00
13367;BME280;6752;52.612;13.630;2023-02-23T04:38:00;100640.34;;;2.51;100.00
13367;BME280;6752;52.612;13.630;2023-02-23T04:43:03;100643.29;;;2.49;100.00
13367;BME280;6752;52.612;13.630;2023-02-23T04:48:05;100634.90;;;2.39;100.00
13367;BME280;6752;52.612;13.630;2023-02-23T04:53:08;100626.16;;;2.37;100.00
13367;BME280;6752;52.612;13.630;2023-02-23T04:58:10;100632.89;;;2.37;100.00
13367;BME280;6752;52.612;13.630;2023-02-23T05:03:12;100637.48;;;2.32;100.00
13367;BME280;6752;52.612;13.630;2023-02-23T05:08:15;100634.81;;;2.16;100.00
13367;BME280;6752;52.612;13.630;2023-02-23T05:13:17;100636.06;;;2.25;100.00
13367;BME280;6752;52.612;13.630;2023-02-23T05:18:19;100630.58;;;2.09;100.00
13367;BME280;6752;52.612;13.630;2023-02-23T05:23:22;100629.83;;;2.08;100.00
13367;BME280;6752;52.612;13.630;2023-02-23T05:28:24;100629.19;;;2.14;100.00
13367;BME280;6752;52.612;13.630;2023-02-23T05:33:27;100619.50;;;2.04;100.00
13367;BME280;6752;52.612;13.630;2023-02-23T05:38:29;100623.62;;;1.99;100.00
13367;BME280;6752;52.612;13.630;2023-02-23T05:43:31;100623.28;;;1.98;100.00
13367;BME280;6752;52.612;13.630;2023-02-23T05:48:33;100621.51;;;2.10;100.00
13367;BME280;6752;52.612;13.630;2023-02-23T05:53:36;100631.09;;;1.92;100.00
13367;BME280;6752;52.612;13.630;2023-02-23T05:58:38;100641.84;;;1.96;100.00
13367;BME280;6752;52.612;13.630;2023-02-23T06:03:40;100636.35;;;1.89;100.00
13367;BME280;6752;52.612;13.630;2023-02-23T06:08:43;100642.77;;;1.96;100.00
13367;BME280;6752;52.612;13.630;2023-02-23T06:13:45;100643.02;;;1.90;100.00
13367;BME280;6752;52.612;13.630;2023-02-23T06:18:48;100643.36;;;1.95;100.00
13367;BME280;6752;52.612;13.630;2023-02-23T06:23:50;100648.66;;;1.96;100.00
13367;BME280;6752;52.612;13.630;2023-02-23T06:28:52;100650.33;;;1.97;100.00
13367;BME280;6752;52.612;13.630;2023-02-23T06:33:55;100652.44;;;2.02;100.00
13367;BME280;6752;52.612;13.630;2023-02-23T06:38:57;100651.17;;;2.01;100.00
13367;BME280;6752;52.612;13.630;2023-02-23T06:43:59;100667.13;;;1.95;100.00
13367;BME280;6752;52.612;13.630;2023-02-23T06:49:02;100669.99;;;2.01;100.00
13367;BME280;6752;52.612;13.630;2023-02-23T06:54:04;100672.27;;;2.01;100.00
13367;BME280;6752;52.612;13.630;2023-02-23T06:59:07;100677.81;;;2.08;100.00
13367;BME280;6752;52.612;13.630;2023-02-23T07:04:12;100676.66;;;2.14;100.00
13367;BME280;6752;52.612;13.630;2023-02-23T07:09:12;100675.98;;;2.16;100.00
13367;BME280;6752;52.612;13.630;2023-02-23T07:14:14;100669.09;;;2.22;100.00
13367;BME280;6752;52.612;13.630;2023-02-23T07:19:16;100671.97;;;2.37;100.00
13367;BME280;6752;52.612;13.630;2023-02-23T07:24:18;100665.66;;;2.45;100.00
13367;BME280;6752;52.612;13.630;2023-02-23T07:29:21;100659.67;;;2.54;100.00
13367;BME280;6752;52.612;13.630;2023-02-23T07:34:23;100654.81;;;2.62;100.00
13367;BME280;6752;52.612;13.630;2023-02-23T07:39:26;100647.34;;;2.92;100.00
13367;BME280;6752;52.612;13.630;2023-02-23T07:44:28;100649.29;;;3.19;100.00
13367;BME280;6752;52.612;13.630;2023-02-23T07:49:31;100640.17;;;3.24;100.00
13367;BME280;6752;52.612;13.630;2023-02-23T07:54:33;100637.91;;;3.44;100.00
13367;BME280;6752;52.612;13.630;2023-02-23T07:59:35;100633.91;;;3.51;100.00
13367;BME280;6752;52.612;13.630;2023-02-23T08:04:38;100637.02;;;3.52;100.00
13367;BME280;6752;52.612;13.630;2023-02-23T08:09:40;100631.61;;;3.60;100.00
13367;BME280;6752;52.612;13.630;2023-02-23T08:14:42;100632.87;;;3.87;100.00
13367;BME280;6752;52.612;13.630;2023-02-23T08:19:44;100630.08;;;4.04;100.00
13367;BME280;6752;52.612;13.630;2023-02-23T08:24:47;100624.33;;;3.91;100.00
13367;BME280;6752;52.612;13.630;2023-02-23T08:29:49;100625.02;;;4.35;100.00
13367;BME280;6752;52.612;13.630;2023-02-23T08:34:51;100617.67;;;4.62;100.00
13367;BME280;6752;52.612;13.630;2023-02-23T08:39:54;100625.67;;;4.56;100.00
13367;BME280;6752;52.612;13.630;2023-02-23T08:44:56;100619.81;;;4.52;100.00
13367;BME280;6752;52.612;13.630;2023-02-23T08:49:59;100623.42;;;4.93;100.00
13367;BME280;6752;52.612;13.630;2023-02-23T08:55:01;100627.95;;;4.82;100.00
13367;BME280;6752;52.612;13.630;2023-02-23T09:00:04;100625.03;;;5.09;100.00
13367;BME280;6752;52.612;13.630;2023-02-23T09:05:06;100622.20;;;5.21;100.00
13367;BME280;6752;52.612;13.630;2023-02-23T09:10:09;100626.05;;;5.30;100.00
13367;BME280;6752;52.612;13.630;2023-02-23T09:15:10;100624.10;;;5.24;100.00
13367;BME280;6752;52.612;13.630;2023-02-23T09:20:13;100630.59;;;5.37;100.00
13367;BME280;6752;52.612;13.630;2023-02-23T09:25:15;100634.47;;;5.46;100.00
13367;BME280;6752;52.612;13.630;2023-02-23T09:30:18;100635.31;;;5.47;100.00
13367;BME280;6752;52.612;13.630;2023-02-23T09:35:20;100630.77;;;5.25;100.00
13367;BME280;6752;52.612;13.630;2023-02-23T09:40:23;100624.92;;;5.47;100.00
13367;BME280;6752;52.612;13.630;2023-02-23T09:46:27;100620.11;;;5.64;100.00
13367;BME280;6752;52.612;13.630;2023-02-23T09:50:37;100616.66;;;6.06;100.00
13367;BME280;6752;52.612;13.630;2023-02-23T09:55:38;100620.85;;;5.98;100.00
13367;BME280;6752;52.612;13.630;2023-02-23T10:00:41;100617.25;;;6.61;100.00
13367;BME280;6752;52.612;13.630;2023-02-23T10:05:45;100626.18;;;6.69;100.00
13367;BME280;6752;52.612;13.630;2023-02-23T10:11:00;100629.92;;;6.33;100.00
13367;BME280;6752;52.612;13.630;2023-02-23T10:16:32;100620.23;;;6.98;100.00
13367;BME280;6752;52.612;13.630;2023-02-23T10:21:37;100616.22;;;8.26;100.00
13367;BME280;6752;52.612;13.630;2023-02-23T10:26:51;100613.19;;;7.72;100.00
13367;BME280;6752;52.612;13.630;2023-02-23T10:31:56;100611.59;;;9.16;100.00
13367;BME280;6752;52.612;13.630;2023-02-23T10:37:01;100605.14;;;9.65;100.00
13367;BME280;6752;52.612;13.630;2023-02-23T10:42:04;100612.97;;;9.74;100.00
13367;BME280;6752;52.612;13.630;2023-02-23T10:47:06;100594.95;;;10.30;100.00
13367;BME280;6752;52.612;13.630;2023-02-23T10:52:11;100591.89;;;10.57;100.00
13367;BME280;6752;52.612;13.630;2023-02-23T10:57:34;100593.97;;;11.23;100.00
13367;BME280;6752;52.612;13.630;2023-02-23T11:02:33;100588.33;;;11.12;100.00
13367;BME280;6752;52.612;13.630;2023-02-23T11:07:40;100578.25;;;12.57;98.67
13367;BME280;6752;52.612;13.630;2023-02-23T11:12:42;100581.31;;;12.43;96.79
13367;BME280;6752;52.612;13.630;2023-02-23T11:17:45;100568.92;;;12.61;96.93
13367;BME280;6752;52.612;13.630;2023-02-23T11:22:47;100572.08;;;12.56;95.63
13367;BME280;6752;52.612;13.630;2023-02-23T11:27:49;100561.02;;;13.03;97.19
13367;BME280;6752;52.612;13.630;2023-02-23T11:32:58;100555.70;;;13.11;95.18
13367;BME280;6752;52.612;13.630;2023-02-23T11:38:12;100550.88;;;13.10;95.91
13367;BME280;6752;52.612;13.630;2023-02-23T11:43:13;100547.45;;;13.02;97.01
13367;BME280;6752;52.612;13.630;2023-02-23T11:48:21;100549.57;;;13.44;96.46
13367;BME280;6752;52.612;13.630;2023-02-23T11:58:43;100543.92;;;12.99;98.83
13367;BME280;6752;52.612;13.630;2023-02-23T12:08:50;100535.91;;;12.77;100.00
13367;BME280;6752;52.612;13.630;2023-02-23T12:14:01;100529.44;;;12.45;100.00
13367;BME280;6752;52.612;13.630;2023-02-23T12:29:36;100519.63;;;12.53;100.00
13367;BME280;6752;52.612;13.630;2023-02-23T12:34:46;100510.20;;;12.96;100.00
13367;BME280;6752;52.612;13.630;2023-02-23T12:39:47;100511.23;;;12.92;100.00
13367;BME280;6752;52.612;13.630;2023-02-23T12:44:51;100502.57;;;12.83;100.00
13367;BME280;6752;52.612;13.630;2023-02-23T12:50:01;100502.20;;;13.23;100.00
13367;BME280;6752;52.612;13.630;2023-02-23T12:55:02;100497.02;;;12.93;100.00
13367;BME280;6752;52.612;13.630;2023-02-23T13:05:25;100501.59;;;13.01;99.93
13367;BME280;6752;52.612;13.630;2023-02-23T13:10:50;100498.70;;;13.20;100.00
13367;BME280;6752;52.612;13.630;2023-02-23T13:31:32;100477.84;;;12.98;100.00
13367;BME280;6752;52.612;13.630;2023-02-23T13:36:33;100474.25;;;13.27;100.00
13367;BME280;6752;52.612;13.630;2023-02-23T13:41:40;100472.31;;;13.08;100.00
13367;BME280;6752;52.612;13.630;2023-02-23T13:47:02;100485.09;;;12.84;100.00
13367;BME280;6752;52.612;13.630;2023-02-23T13:52:08;100482.44;;;12.46;100.00
13367;BME280;6752;52.612;13.630;2023-02-23T13:57:10;100475.89;;;12.53;100.00
13367;BME280;6752;52.612;13.630;2023-02-23T14:02:40;100482.19;;;12.48;100.00
13367;BME280;6752;52.612;13.630;2023-02-23T14:07:28;100479.63;;;12.49;100.00
13367;BME280;6752;52.612;13.630;2023-02-23T14:12:31;100477.49;;;12.16;100.00
13367;BME280;6752;52.612;13.630;2023-02-23T14:22:36;100478.20;;;12.23;100.00
13367;BME280;6752;52.612;13.630;2023-02-23T14:27:42;100483.45;;;11.87;100.00
13367;BME280;6752;52.612;13.630;2023-02-23T14:32:45;100482.18;;;11.71;100.00
13367;BME280;6752;52.612;13.630;2023-02-23T14:37:53;100485.97;;;11.55;100.00
13367;BME280;6752;52.612;13.630;2023-02-23T14:42:52;100485.73;;;11.65;100.00
13367;BME280;6752;52.612;13.630;2023-02-23T14:48:12;100491.73;;;11.26;100.00
13367;BME280;6752;52.612;13.630;2023-02-23T14:53:16;100494.83;;;11.38;100.00
13367;BME280;6752;52.612;13.630;2023-02-23T14:58:28;100498.45;;;11.17;100.00
13367;BME280;6752;52.612;13.630;2023-02-23T15:03:31;100490.80;;;11.08;100.00
13367;BME280;6752;52.612;13.630;2023-02-23T15:08:34;100493.66;;;10.98;100.00
13367;BME280;6752;52.612;13.630;2023-02-23T15:13:40;100496.30;;;10.77;100.00
13367;BME280;6752;52.612;13.630;2023-02-23T15:24:32;100480.00;;;10.61;100.00
13367;BME280;6752;52.612;13.630;2023-02-23T15:29:33;100478.58;;;10.77;100.00
13367;BME280;6752;52.612;13.630;2023-02-23T15:34:35;100475.22;;;10.69;100.00
13367;BME280;6752;52.612;13.630;2023-02-23T15:39:55;100477.06;;;10.81;100.00
13367;BME280;6752;52.612;13.630;2023-02-23T15:44:57;100478.56;;;10.50;100.00
13367;BME280;6752;52.612;13.630;2023-02-23T15:50:17;100467.70;;;10.55;100.00
13367;BME280;6752;52.612;13.630;2023-02-23T15:55:23;100471.22;;;10.50;100.00
13367;BME280;6752;52.612;13.630;2023-02-23T16:00:36;100466.91;;;10.42;100.00
13367;BME280;6752;52.612;13.630;2023-02-23T16:05:38;100463.53;;;10.53;100.00
13367;BME280;6752;52.612;13.630;2023-02-23T16:10:44;100463.98;;;10.50;100.00
13367;BME280;6752;52.612;13.630;2023-02-23T16:15:45;100463.43;;;10.32;100.00
13367;BME280;6752;52.612;13.630;2023-02-23T16:20:53;100465.77;;;10.13;100.00
13367;BME280;6752;52.612;13.630;2023-02-23T16:25:59;100471.17;;;10.07;100.00
13367;BME280;6752;52.612;13.630;2023-02-23T16:31:02;100464.57;;;9.96;100.00
13367;BME280;6752;52.612;13.630;2023-02-23T16:41:17;100460.08;;;9.80;100.00
13367;BME280;6752;52.612;13.630;2023-02-23T16:46:22;100466.18;;;9.88;100.00
13367;BME280;6752;52.612;13.630;2023-02-23T16:51:20;100471.77;;;9.72;100.00
13367;BME280;6752;52.612;13.630;2023-02-23T16:56:22;100469.38;;;9.53;100.00
13367;BME280;6752;52.612;13.630;2023-02-23T17:01:24;100476.50;;;9.51;100.00
13367;BME280;6752;52.612;13.630;2023-02-23T17:06:26;100477.00;;;9.54;100.00
13367;BME280;6752;52.612;13.630;2023-02-23T17:11:29;100481.70;;;9.37;100.00
13367;BME280;6752;52.612;13.630;2023-02-23T17:16:31;100487.94;;;9.22;100.00
13367;BME280;6752;52.612;13.630;2023-02-23T17:21:36;100490.50;;;9.13;100.00
13367;BME280;6752;52.612;13.630;2023-02-23T17:26:39;100489.66;;;9.13;100.00
13367;BME280;6752;52.612;13.630;2023-02-23T17:31:41;100485.13;;;9.19;100.00
13367;BME280;6752;52.612;13.630;2023-02-23T17:36:44;100486.75;;;9.11;100.00
13367;BME280;6752;52.612;13.630;2023-02-23T17:41:46;100497.00;;;9.09;100.00
13367;BME280;6752;52.612;13.630;2023-02-23T17:46:48;100491.06;;;9.06;100.00
13367;BME280;6752;52.612;13.630;2023-02-23T17:51:51;100496.53;;;8.93;100.00
13367;BME280;6752;52.612;13.630;2023-02-23T17:56:53;100489.97;;;8.88;100.00
13367;BME280;6752;52.612;13.630;2023-02-23T18:01:56;100499.19;;;8.84;100.00
13367;BME280;6752;52.612;13.630;2023-02-23T18:06:58;100500.13;;;8.84;100.00
13367;BME280;6752;52.612;13.630;2023-02-23T18:12:00;100497.02;;;8.80;100.00
13367;BME280;6752;52.612;13.630;2023-02-23T18:17:11;100498.91;;;8.76;100.00
13367;BME280;6752;52.612;13.630;2023-02-23T18:22:13;100489.27;;;8.80;100.00
13367;BME280;6752;52.612;13.630;2023-02-23T18:27:16;100485.30;;;8.73;100.00
13367;BME280;6752;52.612;13.630;2023-02-23T18:32:18;100482.17;;;8.73;100.00
13367;BME280;6752;52.612;13.630;2023-02-23T18:37:20;100478.42;;;8.70;100.00
13367;BME280;6752;52.612;13.630;2023-02-23T18:42:23;100484.78;;;8.73;100.00
13367;BME280;6752;52.612;13.630;2023-02-23T18:47:25;100486.38;;;8.65;100.00
13367;BME280;6752;52.612;13.630;2023-02-23T18:52:48;100486.91;;;8.65;100.00
13367;BME280;6752;52.612;13.630;2023-02-23T18:57:49;100486.38;;;8.65;100.00
13367;BME280;6752;52.612;13.630;2023-02-23T19:02:51;100492.65;;;8.66;100.00
13367;BME280;6752;52.612;13.630;2023-02-23T19:07:53;100491.61;;;8.64;100.00
13367;BME280;6752;52.612;13.630;2023-02-23T19:12:55;100484.30;;;8.64;100.00
13367;BME280;6752;52.612;13.630;2023-02-23T19:17:57;100487.78;;;8.52;100.00
13367;BME280;6752;52.612;13.630;2023-02-23T19:23:00;100483.19;;;8.53;100.00
13367;BME280;6752;52.612;13.630;2023-02-23T19:28:08;100476.70;;;8.44;100.00
13367;BME280;6752;52.612;13.630;2023-02-23T19:33:11;100473.03;;;8.51;100.00
13367;BME280;6752;52.612;13.630;2023-02-23T19:38:13;100469.72;;;8.39;100.00
13367;BME280;6752;52.612;13.630;2023-02-23T19:43:15;100477.74;;;8.46;100.00
13367;BME280;6752;52.612;13.630;2023-02-23T19:48:18;100479.33;;;8.38;100.00
13367;BME280;6752;52.612;13.630;2023-02-23T19:53:20;100483.52;;;8.34;100.00
13367;BME280;6752;52.612;13.630;2023-02-23T19:58:23;100477.75;;;8.33;100.00
13367;BME280;6752;52.612;13.630;2023-02-23T20:03:25;100477.75;;;8.33;100.00
13367;BME280;6752;52.612;13.630;2023-02-23T20:08:27;100475.13;;;8.25;100.00
13367;BME280;6752;52.612;13.630;2023-02-23T20:13:34;100478.92;;;8.05;100.00
13367;BME280;6752;52.612;13.630;2023-02-23T20:18:39;100475.67;;;7.89;100.00
13367;BME280;6752;52.612;13.630;2023-02-23T20:29:36;100472.07;;;7.55;100.00
13367;BME280;6752;52.612;13.630;2023-02-23T20:58:40;100464.72;;;7.32;100.00
13367;BME280;6752;52.612;13.630;2023-02-23T21:09:14;100460.76;;;7.32;100.00
13367;BME280;6752;52.612;13.630;2023-02-23T21:14:16;100461.69;;;7.21;100.00
13367;BME280;6752;52.612;13.630;2023-02-23T21:19:15;100454.06;;;7.14;100.00
13367;BME280;6752;52.612;13.630;2023-02-23T21:24:26;100451.36;;;7.18;100.00
13367;BME280;6752;52.612;13.630;2023-02-23T21:29:34;100449.16;;;7.17;100.00
13367;BME280;6752;52.612;13.630;2023-02-23T21:34:36;100447.38;;;7.10;100.00
13367;BME280;6752;52.612;13.630;2023-02-23T21:39:39;100447.97;;;7.09;100.00
13367;BME280;6752;52.612;13.630;2023-02-23T21:45:03;100449.42;;;7.05;100.00
13367;BME280;6752;52.612;13.630;2023-02-23T21:50:06;100440.25;;;7.06;100.00
13367;BME280;6752;52.612;13.630;2023-02-23T21:55:09;100440.34;;;7.01;100.00
13367;BME280;6752;52.612;13.630;2023-02-23T22:00:11;100439.49;;;6.91;100.00
13367;BME280;6752;52.612;13.630;2023-02-23T22:05:14;100421.59;;;7.00;100.00
13367;BME280;6752;52.612;13.630;2023-02-23T22:10:19;100419.83;;;7.07;100.00
13367;BME280;6752;52.612;13.630;2023-02-23T22:15:18;100412.73;;;7.02;100.00
13367;BME280;6752;52.612;13.630;2023-02-23T22:20:24;100406.16;;;7.04;100.00
13367;BME280;6752;52.612;13.630;2023-02-23T22:25:23;100409.80;;;6.97;100.00
13367;BME280;6752;52.612;13.630;2023-02-23T22:30:35;100405.42;;;7.00;100.00
13367;BME280;6752;52.612;13.630;2023-02-23T22:35:33;100402.39;;;6.92;100.00
13367;BME280;6752;52.612;13.630;2023-02-23T22:40:36;100399.05;;;6.90;100.00
13367;BME280;6752;52.612;13.630;2023-02-23T22:45:44;100394.58;;;6.90;100.00
13367;BME280;6752;52.612;13.630;2023-02-23T22:50:46;100390.31;;;6.95;100.00
13367;BME280;6752;52.612;13.630;2023-02-23T22:55:49;100384.05;;;6.91;100.00
13367;BME280;6752;52.612;13.630;2023-02-23T23:00:51;100379.87;;;6.88;100.00
13367;BME280;6752;52.612;13.630;2023-02-23T23:06:09;100377.70;;;6.94;100.00
13367;BME280;6752;52.612;13.630;2023-02-23T23:11:16;100381.65;;;6.88;100.00
13367;BME280;6752;52.612;13.630;2023-02-23T23:16:17;100373.11;;;6.91;100.00
13367;BME280;6752;52.612;13.630;2023-02-23T23:21:19;100374.05;;;6.88;100.00
13367;BME280;6752;52.612;13.630;2023-02-23T23:26:21;100363.31;;;6.90;100.00
13367;BME280;6752;52.612;13.630;2023-02-23T23:31:24;100357.58;;;6.89;100.00
13367;BME280;6752;52.612;13.630;2023-02-23T23:36:27;100356.12;;;6.87;100.00
13367;BME280;6752;52.612;13.630;2023-02-23T23:41:28;100352.95;;;6.80;100.00
13367;BME280;6752;52.612;13.630;2023-02-23T23:46:34;100350.56;;;6.84;100.00
13367;BME280;6752;52.612;13.630;2023-02-23T23:51:37;100357.53;;;6.80;100.00
13367;BME280;6752;52.612;13.630;2023-02-23T23:56:41;100345.34;;;6.80;100.00
